Time;durP1;ratioP1;P1;durP2;ratioP2;P2;SDS_P1;SDS_P2;PMS_P1;PMS_P2;Temp;Humidity;BMP_temperature;BMP_pressure;BME280_temperature;BME280_humidity;BME280_pressure;Samples;Min_cycle;Max_cycle;Signal;HPM_P1;HPM_P2
2022/09/03 00:00:48;;;;;;;;;;;;;;;;;;5043972;28;20002;-56
2022/09/03 00:03:15;;;;;;;;;;;;;;;;;;5044182;28;19917;-56
2022/09/03 00:05:41;;;;;;;;;;;;;;;;;;5042990;28;19924;-57
2022/09/03 00:08:08;;;;;;;;;;;;;;;;;;5044271;28;19920;-57
2022/09/03 00:10:34;;;;;;;;;;;;;;;;;;5043940;28;19923;-57
2022/09/03 00:13:01;;;;;;;;;;;;;;;;;;5045163;28;20130;-56
2022/09/03 00:15:28;;;;;;;;;;;;;;;;;;5043810;28;20007;-57
2022/09/03 00:17:54;;;;;;;;;;;;;;;;;;5043222;28;19927;-57
2022/09/03 00:20:20;;;;;;;;;;;;;;;;;;5044097;28;19909;-56
2022/09/03 00:22:46;;;;;;;;;;;;;;;;;;5043965;28;19917;-57
2022/09/03 00:25:13;;;;;;;;;;;;;;;;;;5043273;28;19920;-57
2022/09/03 00:27:38;;;;;;;;;;;;;;;;;;5043036;28;19917;-57
2022/09/03 00:30:05;;;;;;;;;;;;;;;;;;5043909;28;19924;-57
2022/09/03 00:32:31;;;;;;;;;;;;;;;;;;5043514;28;20352;-58
2022/09/03 00:34:57;;;;;;;;;;;;;;;;;;5044514;28;19920;-57
2022/09/03 00:37:23;;;;;;;;;;;;;;;;;;5043901;28;19967;-57
2022/09/03 00:39:49;;;;;;;;;;;;;;;;;;5043074;28;20399;-57
2022/09/03 00:42:15;;;;;;;;;;;;;;;;;;5044423;28;19967;-57
2022/09/03 00:44:44;;;;;;;;;;;;;;;;;;5043911;28;20012;-58
2022/09/03 00:47:10;;;;;;;;;;;;;;;;;;5044761;28;19909;-58
2022/09/03 00:49:36;;;;;;;;;;;;;;;;;;5043940;28;19913;-57
2022/09/03 00:52:02;;;;;;;;;;;;;;;;;;5047015;28;19924;-58
2022/09/03 00:54:29;;;;;;;;;;;;;;;;;;5047162;28;20379;-57
2022/09/03 00:56:55;;;;;;;;;;;;;;;;;;5046607;28;19932;-57
2022/09/03 00:59:20;;;;;;;;;;;;;;;;;;5047719;28;19913;-58
2022/09/03 01:01:47;;;;;;;;;;;;;;;;;;5046750;28;19956;-58
2022/09/03 01:04:14;;;;;;;;;;;;;;;;;;5046284;28;20464;-57
2022/09/03 01:06:40;;;;;;;;;;;;;;;;;;5047583;28;19909;-58
2022/09/03 01:09:08;;;;;;;;;;;;;;;;;;5046821;28;20311;-58
2022/09/03 01:11:35;;;;;;;;;;;;;;;;;;5047159;28;19977;-57
2022/09/03 01:14:01;;;;;;;;;;;;;;;;;;5046976;28;19916;-58
2022/09/03 01:16:27;;;;;;;;;;;;;;;;;;5046964;28;19908;-57
2022/09/03 01:18:53;;;;;;;;;;;;;;;;;;5047197;28;19963;-58
2022/09/03 01:21:19;;;;;;;;;;;;;;;;;;5046996;28;20149;-58
2022/09/03 01:23:44;;;;;;;;;;;;;;;;;;5045814;28;19928;-58
2022/09/03 01:26:12;;;;;;;;;;;;;;;;;;5047641;28;20070;-58
2022/09/03 01:28:39;;;;;;;;;;;;;;;;;;5047206;28;19909;-58
2022/09/03 01:31:10;;;;;;;;;;;;;;;;;;5046632;28;20035;-58
2022/09/03 01:33:36;;;;;;;;;;;;;;;;;;5046120;28;19917;-58
2022/09/03 01:36:02;;;;;;;;;;;;;;;;;;5046701;28;19920;-58
2022/09/03 01:38:27;;;;;;;;;;;;;;;;;;5046849;28;19909;-57
2022/09/03 01:40:53;;;;;;;;;;;;;;;;;;5046608;28;19962;-58
2022/09/03 01:43:19;;;;;;;;;;;;;;;;;;5045885;28;20054;-58
2022/09/03 01:45:47;;;;;;;;;;;;;;;;;;5045460;28;19916;-58
2022/09/03 01:48:13;;;;;;;;;;;;;;;;;;5046801;28;19939;-58
2022/09/03 01:50:40;;;;;;;;;;;;;;;;;;5045771;28;19928;-58
2022/09/03 01:53:06;;;;;;;;;;;;;;;;;;5044987;28;19917;-58
2022/09/03 01:55:32;;;;;;;;;;;;;;;;;;5045179;28;20103;-57
2022/09/03 01:57:58;;;;;;;;;;;;;;;;;;5046830;28;19916;-58
2022/09/03 02:00:24;;;;;;;;;;;;;;;;;;5045961;28;19913;-58
2022/09/03 02:02:50;;;;;;;;;;;;;;;;;;5043495;28;19917;-57
2022/09/03 02:05:17;;;;;;;;;;;;;;;;;;5046078;28;20330;-58
2022/09/03 02:07:42;;;;;;;;;;;;;;;;;;5045905;28;20427;-58
2022/09/03 02:10:08;;;;;;;;;;;;;;;;;;5047149;28;19917;-58
2022/09/03 02:12:35;;;;;;;;;;;;;;;;;;5044768;28;19955;-58
2022/09/03 02:15:02;;;;;;;;;;;;;;;;;;5045835;28;19913;-58
2022/09/03 02:17:29;;;;;;;;;;;;;;;;;;5045980;28;19909;-59
2022/09/03 02:19:55;;;;;;;;;;;;;;;;;;5045801;28;20383;-58
2022/09/03 02:22:21;;;;;;;;;;;;;;;;;;5045594;28;19940;-59
2022/09/03 02:24:46;;;;;;;;;;;;;;;;;;5045273;28;19912;-58
2022/09/03 02:27:13;;;;;;;;;;;;;;;;;;5045870;28;19959;-59
2022/09/03 02:29:39;;;;;;;;;;;;;;;;;;5046163;28;20007;-58
2022/09/03 02:32:05;;;;;;;;;;;;;;;;;;5044973;28;20015;-58
2022/09/03 02:34:31;;;;;;;;;;;;;;;;;;5045304;28;20426;-59
2022/09/03 02:36:57;;;;;;;;;;;;;;;;;;5045722;28;19959;-59
2022/09/03 02:39:23;;;;;;;;;;;;;;;;;;5045900;28;19936;-59
2022/09/03 02:41:49;;;;;;;;;;;;;;;;;;5044019;28;19913;-59
2022/09/03 02:44:15;;;;;;;;;;;;;;;;;;5045734;28;19928;-59
2022/09/03 02:46:41;;;;;;;;;;;;;;;;;;5046740;28;19908;-59
2022/09/03 02:49:07;;;;;;;;;;;;;;;;;;5046643;28;19913;-59
2022/09/03 02:51:34;;;;;;;;;;;;;;;;;;5045072;28;20419;-59
2022/09/03 02:54:00;;;;;;;;;;;;;;;;;;5046550;28;19920;-59
2022/09/03 02:56:26;;;;;;;;;;;;;;;;;;5045970;28;20307;-59
2022/09/03 02:58:52;;;;;;;;;;;;;;;;;;5045737;28;19912;-59
2022/09/03 03:01:19;;;;;;;;;;;;;;;;;;5045105;28;20281;-59
2022/09/03 03:03:45;;;;;;;;;;;;;;;;;;5045188;28;20311;-59
2022/09/03 03:06:12;;;;;;;;;;;;;;;;;;5046450;28;20003;-59
2022/09/03 03:08:38;;;;;;;;;;;;;;;;;;5046273;28;19909;-59
2022/09/03 03:11:05;;;;;;;;;;;;;;;;;;5045513;28;20398;-59
2022/09/03 03:13:31;;;;;;;;;;;;;;;;;;5044358;28;19974;-59
2022/09/03 03:15:57;;;;;;;;;;;;;;;;;;5045242;28;19956;-59
2022/09/03 03:18:23;;;;;;;;;;;;;;;;;;5045602;28;19912;-59
2022/09/03 03:20:50;;;;;;;;;;;;;;;;;;5044565;28;19913;-59
2022/09/03 03:23:16;;;;;;;;;;;;;;;;;;5044533;28;19917;-59
2022/09/03 03:25:41;;;;;;;;;;;;;;;;;;5045928;28;19974;-59
2022/09/03 03:28:07;;;;;;;;;;;;;;;;;;5045962;28;19943;-59
2022/09/03 03:30:33;;;;;;;;;;;;;;;;;;5044853;28;19927;-59
2022/09/03 03:33:00;;;;;;;;;;;;;;;;;;5044568;28;19966;-50
2022/09/03 03:35:26;;;;;;;;;;;;;;;;;;5044489;28;20292;-47
2022/09/03 03:37:52;;;;;;;;;;;;;;;;;;5044745;28;19916;-50
2022/09/03 03:40:19;;;;;;;;;;;;;;;;;;5045284;28;19909;-48
2022/09/03 03:42:45;;;;;;;;;;;;;;;;;;5043503;28;20292;-51
2022/09/03 03:45:11;;;;;;;;;;;;;;;;;;5045551;28;19920;-50
2022/09/03 03:47:37;;;;;;;;;;;;;;;;;;5045059;28;20387;-50
2022/09/03 03:50:03;;;;;;;;;;;;;;;;;;5045102;28;20431;-51
2022/09/03 03:52:28;;;;;;;;;;;;;;;;;;5044239;28;20007;-47
2022/09/03 03:54:55;;;;;;;;;;;;;;;;;;5044832;28;19913;-49
2022/09/03 03:57:22;;;;;;;;;;;;;;;;;;5044998;28;19908;-51
2022/09/03 03:59:49;;;;;;;;;;;;;;;;;;5044541;28;19913;-47
2022/09/03 04:02:15;;;;;;;;;;;;;;;;;;5044739;28;19909;-49
2022/09/03 04:04:41;;;;;;;;;;;;;;;;;;5044432;28;19942;-49
2022/09/03 04:07:07;;;;;;;;;;;;;;;;;;5044830;28;20372;-49
2022/09/03 04:09:33;;;;;;;;;;;;;;;;;;5044760;28;19913;-51
2022/09/03 04:11:58;;;;;;;;;;;;;;;;;;5044220;28;19940;-48
2022/09/03 04:14:25;;;;;;;;;;;;;;;;;;5043777;28;20400;-51
2022/09/03 04:16:51;;;;;;;;;;;;;;;;;;5043954;28;19923;-51
2022/09/03 04:19:18;;;;;;;;;;;;;;;;;;5045017;28;19912;-47
2022/09/03 04:21:44;;;;;;;;;;;;;;;;;;5044512;28;20054;-48
2022/09/03 04:24:09;;;;;;;;;;;;;;;;;;5044817;28;20370;-51
2022/09/03 04:26:35;;;;;;;;;;;;;;;;;;5047344;28;19923;-47
2022/09/03 04:29:01;;;;;;;;;;;;;;;;;;5048422;28;20299;-50
2022/09/03 04:31:27;;;;;;;;;;;;;;;;;;5048809;28;19917;-49
2022/09/03 04:33:53;;;;;;;;;;;;;;;;;;5046233;28;20492;-48
2022/09/03 04:36:19;;;;;;;;;;;;;;;;;;5029418;28;19915;-50
2022/09/03 04:38:45;;;;;;;;;;;;;;;;;;5039393;28;19917;-48
2022/09/03 04:41:12;;;;;;;;;;;;;;;;;;5050369;28;19966;-49
2022/09/03 04:43:38;;;;;;;;;;;;;;;;;;5048560;28;19923;-49
2022/09/03 04:46:05;;;;;;;;;;;;;;;;;;5049955;28;19908;-50
2022/09/03 04:48:31;;;;;;;;;;;;;;;;;;5049637;28;19909;-50
2022/09/03 04:50:57;;;;;;;;;;;;;;;;;;5049517;28;20375;-49
2022/09/03 04:53:23;;;;;;;;;;;;;;;;;;5049037;28;19923;-47
2022/09/03 04:55:48;;;;;;;;;;;;;;;;;;5049480;28;19935;-46
2022/09/03 04:58:14;;;;;;;;;;;;;;;;;;5049475;28;20460;-47
2022/09/03 05:00:40;;;;;;;;;;;;;;;;;;5050252;28;20037;-49
2022/09/03 05:03:06;;;;;;;;;;;;;;;;;;5049019;28;20007;-48
2022/09/03 05:05:32;;;;;;;;;;;;;;;;;;5048803;28;19912;-47
2022/09/03 05:08:00;;;;;;;;;;;;;;;;;;5049585;28;19963;-50
2022/09/03 05:10:26;;;;;;;;;;;;;;;;;;5049275;28;20467;-50
2022/09/03 05:12:52;;;;;;;;;;;;;;;;;;5048157;28;21567;-47
2022/09/03 05:15:18;;;;;;;;;;;;;;;;;;5048503;28;19917;-45
2022/09/03 05:17:44;;;;;;;;;;;;;;;;;;5047860;28;19968;-47
2022/09/03 05:20:10;;;;;;;;;;;;;;;;;;5049034;28;19909;-47
2022/09/03 05:22:36;;;;;;;;;;;;;;;;;;5046107;28;19916;-50
2022/09/03 05:25:02;;;;;;;;;;;;;;;;;;5044711;28;19927;-47
2022/09/03 05:27:28;;;;;;;;;;;;;;;;;;5044164;28;19913;-46
2022/09/03 05:29:54;;;;;;;;;;;;;;;;;;5044950;28;19963;-50
2022/09/03 05:32:20;;;;;;;;;;;;;;;;;;5040353;28;19913;-47
2022/09/03 05:34:46;;;;;;;;;;;;;;;;;;5045565;28;19917;-50
2022/09/03 05:37:12;;;;;;;;;;;;;;;;;;5047821;28;19920;-49
2022/09/03 05:39:38;;;;;;;;;;;;;;;;;;5046433;28;19939;-47
2022/09/03 05:42:04;;;;;;;;;;;;;;;;;;5047105;28;19913;-47
2022/09/03 05:44:30;;;;;;;;;;;;;;;;;;5045936;28;19917;-47
2022/09/03 05:46:56;;;;;;;;;;;;;;;;;;5045846;28;19936;-46
2022/09/03 05:49:22;;;;;;;;;;;;;;;;;;5047276;28;19916;-47
2022/09/03 05:51:48;;;;;;;;;;;;;;;;;;5046854;28;19917;-50
2022/09/03 05:54:14;;;;;;;;;;;;;;;;;;5047134;28;19912;-47
2022/09/03 05:56:41;;;;;;;;;;;;;;;;;;5046238;28;19939;-46
2022/09/03 05:59:08;;;;;;;;;;;;;;;;;;5046256;28;19917;-49
2022/09/03 06:01:34;;;;;;;;;;;;;;;;;;5046754;28;19916;-48
2022/09/03 06:04:00;;;;;;;;;;;;;;;;;;5046110;28;20298;-48
2022/09/03 06:06:26;;;;;;;;;;;;;;;;;;5046245;28;19919;-48
2022/09/03 06:08:51;;;;;;;;;;;;;;;;;;5046909;28;19913;-50
2022/09/03 06:11:17;;;;;;;;;;;;;;;;;;5046737;28;19917;-49
2022/09/03 06:13:43;;;;;;;;;;;;;;;;;;5046916;28;19923;-48
2022/09/03 06:16:09;;;;;;;;;;;;;;;;;;5046476;28;20439;-48
2022/09/03 06:18:35;;;;;;;;;;;;;;;;;;5046353;28;20367;-49
2022/09/03 06:21:01;;;;;;;;;;;;;;;;;;5044046;28;19959;-48
2022/09/03 06:23:27;;;;;;;;;;;;;;;;;;5045798;28;19917;-49
2022/09/03 06:25:53;;;;;;;;;;;;;;;;;;5045703;28;20394;-47
2022/09/03 06:28:19;;;;;;;;;;;;;;;;;;5046309;28;19956;-48
2022/09/03 06:30:46;;;;;;;;;;;;;;;;;;5044607;28;19993;-50
2022/09/03 06:33:12;;;;;;;;;;;;;;;;;;5048139;28;19916;-46
2022/09/03 06:35:40;;;;;;;;;;;;;;;;;;5046826;28;19921;-50
2022/09/03 06:38:06;;;;;;;;;;;;;;;;;;5047853;28;19916;-49
2022/09/03 06:40:32;;;;;;;;;;;;;;;;;;5047404;28;19912;-50
2022/09/03 06:43:01;;;;;;;;;;;;;;;;;;5047139;28;19916;-47
2022/09/03 06:45:28;;;;;;;;;;;;;;;;;;5046821;28;19919;-47
2022/09/03 06:47:54;;;;;;;;;;;;;;;;;;5045356;28;19967;-47
2022/09/03 06:50:19;;;;;;;;;;;;;;;;;;5045072;28;20002;-47
2022/09/03 06:52:45;;;;;;;;;;;;;;;;;;5046194;28;20395;-46
2022/09/03 06:55:11;;;;;;;;;;;;;;;;;;5045365;28;19924;-49
2022/09/03 06:57:37;;;;;;;;;;;;;;;;;;5042672;28;20296;-46
2022/09/03 07:00:03;;;;;;;;;;;;;;;;;;5045956;28;19917;-48
2022/09/03 07:02:29;;;;;;;;;;;;;;;;;;5045220;28;19924;-50
2022/09/03 07:04:56;;;;;;;;;;;;;;;;;;5046542;28;19916;-49
2022/09/03 07:07:21;;;;;;;;;;;;;;;;;;5046732;28;19909;-51
2022/09/03 07:09:47;;;;;;;;;;;;;;;;;;5046092;28;19913;-47
2022/09/03 07:12:17;;;;;;;;;;;;;;;;;;5046805;28;19916;-50
2022/09/03 07:14:44;;;;;;;;;;;;;;;;;;5036080;28;20008;-50
2022/09/03 07:17:10;;;;;;;;;;;;;;;;;;5027061;28;19909;-48
2022/09/03 07:19:35;;;;;;;;;;;;;;;;;;5036274;28;19909;-47
2022/09/03 07:22:01;;;;;;;;;;;;;;;;;;5046265;28;19915;-49
2022/09/03 07:24:28;;;;;;;;;;;;;;;;;;5046027;28;19913;-47
2022/09/03 07:26:56;;;;;;;;;;;;;;;;;;5046035;28;19913;-49
2022/09/03 07:29:23;;;;;;;;;;;;;;;;;;5046127;28;19913;-51
2022/09/03 07:31:52;;;;;;;;;;;;;;;;;;5046100;28;19921;-47
2022/09/03 07:34:18;;;;;;;;;;;;;;;;;;5034019;28;19927;-48
2022/09/03 07:36:49;;;;;;;;;;;;;;;;;;5027201;28;19921;-46
2022/09/03 07:39:16;;;;;;;;;;;;;;;;;;5027298;28;19917;-46
2022/09/03 07:41:44;;;;;;;;;;;;;;;;;;5026726;28;19920;-47
2022/09/03 07:44:10;;;;;;;;;;;;;;;;;;4955555;28;1801942;-49
2022/09/03 07:46:36;;;;;;;;;;;;;;;;;;5038361;28;20000;-47
2022/09/03 07:49:02;;;;;;;;;;;;;;;;;;5044508;28;19917;-48
2022/09/03 07:51:28;;;;;;;;;;;;;;;;;;5045305;28;20015;-48
2022/09/03 07:53:55;;;;;;;;;;;;;;;;;;5045202;28;20459;-47
2022/09/03 07:56:21;;;;;;;;;;;;;;;;;;5045206;28;19913;-49
2022/09/03 07:58:47;;;;;;;;;;;;;;;;;;5043939;28;19956;-50
2022/09/03 08:01:13;;;;;;;;;;;;;;;;;;5045860;28;19971;-49
2022/09/03 08:03:39;;;;;;;;;;;;;;;;;;5043924;28;19925;-50
2022/09/03 08:06:05;;;;;;;;;;;;;;;;;;5037453;28;19917;-48
2022/09/03 08:08:31;;;;;;;;;;;;;;;;;;5028730;28;20004;-50
2022/09/03 08:10:58;;;;;;;;;;;;;;;;;;5044975;28;19924;-46
2022/09/03 08:13:24;;;;;;;;;;;;;;;;;;5046137;28;19909;-46
2022/09/03 08:15:50;;;;;;;;;;;;;;;;;;5046126;28;19920;-48
2022/09/03 08:18:16;;;;;;;;;;;;;;;;;;5044315;28;19951;-49
2022/09/03 08:20:42;;;;;;;;;;;;;;;;;;5044467;28;19921;-48
2022/09/03 08:23:08;;;;;;;;;;;;;;;;;;5045736;28;20287;-49
2022/09/03 08:25:34;;;;;;;;;;;;;;;;;;5045182;28;19967;-47
2022/09/03 08:28:00;;;;;;;;;;;;;;;;;;5044291;28;19916;-48
2022/09/03 08:30:26;;;;;;;;;;;;;;;;;;5044420;28;19991;-50
2022/09/03 08:32:52;;;;;;;;;;;;;;;;;;5045135;28;20437;-50
2022/09/03 08:35:18;;;;;;;;;;;;;;;;;;5044930;28;20003;-50
2022/09/03 08:37:44;;;;;;;;;;;;;;;;;;5045850;28;20004;-47
2022/09/03 08:40:10;;;;;;;;;;;;;;;;;;5045476;28;19924;-48
2022/09/03 08:42:36;;;;;;;;;;;;;;;;;;5044440;28;19924;-47
2022/09/03 08:45:02;;;;;;;;;;;;;;;;;;5045638;28;20284;-51
2022/09/03 08:47:28;;;;;;;;;;;;;;;;;;5045311;28;20011;-47
2022/09/03 08:49:54;;;;;;;;;;;;;;;;;;5044051;28;19924;-47
2022/09/03 08:52:20;;;;;;;;;;;;;;;;;;5045210;28;20311;-50
2022/09/03 08:54:46;;;;;;;;;;;;;;;;;;5043759;28;19913;-50
2022/09/03 08:57:13;;;;;;;;;;;;;;;;;;5046375;28;19979;-50
2022/09/03 08:59:39;;;;;;;;;;;;;;;;;;5045728;28;19963;-48
2022/09/03 09:02:05;;;;;;;;;;;;;;;;;;5045934;28;19913;-49
2022/09/03 09:04:33;;;;;;;;;;;;;;;;;;5044227;28;20007;-47
2022/09/03 09:07:00;;;;;;;;;;;;;;;;;;5044334;28;19917;-49
2022/09/03 09:09:26;;;;;;;;;;;;;;;;;;5044469;28;19936;-49
2022/09/03 09:11:52;;;;;;;;;;;;;;;;;;5046014;28;20013;-51
2022/09/03 09:14:18;;;;;;;;;;;;;;;;;;5048186;28;19959;-49
2022/09/03 09:16:44;;;;;;;;;;;;;;;;;;5047866;28;20380;-47
2022/09/03 09:19:10;;;;;;;;;;;;;;;;;;5048420;28;19912;-47
2022/09/03 09:21:36;;;;;;;;;;;;;;;;;;5047548;28;19959;-47
2022/09/03 09:24:03;;;;;;;;;;;;;;;;;;5047639;28;20213;-47
2022/09/03 09:26:29;;;;;;;;;;;;;;;;;;5047184;28;19995;-49
2022/09/03 09:28:54;;;;;;;;;;;;;;;;;;5047716;28;20011;-45
2022/09/03 09:31:20;;;;;;;;;;;;;;;;;;5047629;28;19924;-47
2022/09/03 09:33:46;;;;;;;;;;;;;;;;;;5047074;28;19948;-44
2022/09/03 09:36:15;;;;;;;;;;;;;;;;;;5047938;28;19909;-47
2022/09/03 09:38:41;;;;;;;;;;;;;;;;;;5048149;28;20288;-48
2022/09/03 09:41:08;;;;;;;;;;;;;;;;;;5047238;28;19909;-49
2022/09/03 09:43:33;;;;;;;;;;;;;;;;;;5046999;28;19932;-48
2022/09/03 09:45:59;;;;;;;;;;;;;;;;;;5047531;28;19912;-47
2022/09/03 09:48:28;;;;;;;;;;;;;;;;;;5047431;28;20346;-47
2022/09/03 09:50:54;;;;;;;;;;;;;;;;;;5028976;28;20008;-48
2022/09/03 09:53:21;;;;;;;;;;;;;;;;;;5046927;28;20003;-47
2022/09/03 09:55:47;;;;;;;;;;;;;;;;;;5046265;28;19913;-46
2022/09/03 09:58:14;;;;;;;;;;;;;;;;;;5047634;28;20419;-48
2022/09/03 10:00:41;;;;;;;;;;;;;;;;;;5047344;28;19955;-45
2022/09/03 10:03:08;;;;;;;;;;;;;;;;;;5047383;28;19909;-49
2022/09/03 10:05:36;;;;;;;;;;;;;;;;;;5046428;28;20568;-47
2022/09/03 10:08:03;;;;;;;;;;;;;;;;;;5047147;28;20379;-49
2022/09/03 10:10:32;;;;;;;;;;;;;;;;;;5046557;28;20007;-46
2022/09/03 10:13:00;;;;;;;;;;;;;;;;;;5046838;28;20375;-45
2022/09/03 10:15:26;;;;;;;;;;;;;;;;;;5046834;28;19913;-46
2022/09/03 10:17:52;;;;;;;;;;;;;;;;;;5046368;28;20399;-49
2022/09/03 10:20:29;;;;;;;;;;;;;;;;;;5046740;28;19909;-50
2022/09/03 10:22:55;;;;;;;;;;;;;;;;;;5045585;28;19912;-50
2022/09/03 10:25:23;;;;;;;;;;;;;;;;;;5046533;28;19916;-47
2022/09/03 10:27:49;;;;;;;;;;;;;;;;;;5046027;28;19913;-50
2022/09/03 10:30:15;;;;;;;;;;;;;;;;;;5046888;28;20358;-45
2022/09/03 10:32:41;;;;;;;;;;;;;;;;;;5046673;28;19913;-48
2022/09/03 10:35:09;;;;;;;;;;;;;;;;;;5046220;28;20280;-46
2022/09/03 10:37:35;;;;;;;;;;;;;;;;;;5046178;28;20452;-45
2022/09/03 10:40:00;;;;;;;;;;;;;;;;;;5046142;28;20318;-48
2022/09/03 10:42:26;;;;;;;;;;;;;;;;;;5046209;28;19909;-46
2022/09/03 10:44:52;;;;;;;;;;;;;;;;;;5046233;28;20364;-48
2022/09/03 10:47:18;;;;;;;;;;;;;;;;;;5045951;28;19916;-45
2022/09/03 10:49:44;;;;;;;;;;;;;;;;;;5046460;28;20011;-45
2022/09/03 10:52:13;;;;;;;;;;;;;;;;;;5046723;28;20362;-49
2022/09/03 10:54:39;;;;;;;;;;;;;;;;;;5045658;28;19917;-50
2022/09/03 10:57:05;;;;;;;;;;;;;;;;;;5045518;28;19966;-45
2022/09/03 10:59:32;;;;;;;;;;;;;;;;;;5045789;28;20387;-47
2022/09/03 11:01:58;;;;;;;;;;;;;;;;;;5045610;28;20003;-48
2022/09/03 11:04:24;;;;;;;;;;;;;;;;;;5045914;28;20443;-45
2022/09/03 11:06:50;;;;;;;;;;;;;;;;;;5045420;28;19909;-49
2022/09/03 11:09:15;;;;;;;;;;;;;;;;;;5045742;28;20447;-45
2022/09/03 11:11:41;;;;;;;;;;;;;;;;;;5046103;28;19920;-49
2022/09/03 11:14:08;;;;;;;;;;;;;;;;;;5045691;28;20375;-47
2022/09/03 11:16:34;;;;;;;;;;;;;;;;;;5044827;28;19912;-46
2022/09/03 11:19:00;;;;;;;;;;;;;;;;;;5045802;28;20281;-45
2022/09/03 11:21:26;;;;;;;;;;;;;;;;;;5045650;28;19917;-46
2022/09/03 11:23:52;;;;;;;;;;;;;;;;;;5045132;28;20308;-45
2022/09/03 11:26:18;;;;;;;;;;;;;;;;;;5045471;28;19916;-44
2022/09/03 11:28:45;;;;;;;;;;;;;;;;;;5045794;28;20362;-46
2022/09/03 11:31:12;;;;;;;;;;;;;;;;;;5045677;28;19916;-45
2022/09/03 11:33:39;;;;;;;;;;;;;;;;;;5044820;28;19909;-45
2022/09/03 11:36:05;;;;;;;;;;;;;;;;;;5045103;28;19995;-44
2022/09/03 11:38:31;;;;;;;;;;;;;;;;;;5044977;28;19996;-45
2022/09/03 11:40:57;;;;;;;;;;;;;;;;;;5045593;28;19955;-45
2022/09/03 11:43:23;;;;;;;;;;;;;;;;;;5045119;28;19920;-45
2022/09/03 11:45:50;;;;;;;;;;;;;;;;;;5044601;28;19905;-44
2022/09/03 11:48:16;;;;;;;;;;;;;;;;;;5045149;28;19912;-44
2022/09/03 11:50:41;;;;;;;;;;;;;;;;;;5045608;28;20031;-48
2022/09/03 11:53:07;;;;;;;;;;;;;;;;;;5045310;28;19908;-48
2022/09/03 11:55:33;;;;;;;;;;;;;;;;;;5044701;28;19920;-45
2022/09/03 11:57:59;;;;;;;;;;;;;;;;;;5045223;28;19913;-47
2022/09/03 12:00:26;;;;;;;;;;;;;;;;;;5044607;28;19912;-45
2022/09/03 12:02:53;;;;;;;;;;;;;;;;;;5044763;28;19956;-46
2022/09/03 12:05:18;;;;;;;;;;;;;;;;;;5027240;28;19915;-45
2022/09/03 12:07:44;;;;;;;;;;;;;;;;;;5045464;28;20003;-44
2022/09/03 12:10:10;;;;;;;;;;;;;;;;;;5045176;28;20393;-48
2022/09/03 12:12:36;;;;;;;;;;;;;;;;;;5044506;28;20476;-45
2022/09/03 12:15:02;;;;;;;;;;;;;;;;;;5044693;28;19940;-45
2022/09/03 12:17:28;;;;;;;;;;;;;;;;;;5044623;28;19916;-45
2022/09/03 12:19:54;;;;;;;;;;;;;;;;;;5044918;28;19962;-46
2022/09/03 12:22:20;;;;;;;;;;;;;;;;;;5044812;28;20387;-46
2022/09/03 12:24:46;;;;;;;;;;;;;;;;;;5044805;28;19912;-45
2022/09/03 12:27:12;;;;;;;;;;;;;;;;;;5045360;28;19948;-47
2022/09/03 12:29:39;;;;;;;;;;;;;;;;;;5044599;28;19974;-46
2022/09/03 12:32:05;;;;;;;;;;;;;;;;;;5044807;28;20669;-46
2022/09/03 12:34:31;;;;;;;;;;;;;;;;;;5044461;28;20016;-48
2022/09/03 12:36:57;;;;;;;;;;;;;;;;;;5044763;28;19935;-45
2022/09/03 12:39:23;;;;;;;;;;;;;;;;;;5044570;28;19939;-44
2022/09/03 12:41:49;;;;;;;;;;;;;;;;;;5044541;28;19909;-44
2022/09/03 12:44:16;;;;;;;;;;;;;;;;;;5044814;28;19960;-45
2022/09/03 12:46:42;;;;;;;;;;;;;;;;;;5047100;28;19916;-45
2022/09/03 12:49:08;;;;;;;;;;;;;;;;;;5048306;28;19909;-44
2022/09/03 12:51:34;;;;;;;;;;;;;;;;;;5048209;28;20383;-46
2022/09/03 12:54:00;;;;;;;;;;;;;;;;;;5048116;28;19913;-47
2022/09/03 12:56:32;;;;;;;;;;;;;;;;;;5047990;28;19919;-45
2022/09/03 12:58:58;;;;;;;;;;;;;;;;;;5048220;28;19965;-47
2022/09/03 13:01:24;;;;;;;;;;;;;;;;;;5048253;28;19913;-45
2022/09/03 13:03:53;;;;;;;;;;;;;;;;;;5048162;28;19956;-47
2022/09/03 13:06:18;;;;;;;;;;;;;;;;;;5048102;28;19909;-47
2022/09/03 13:08:45;;;;;;;;;;;;;;;;;;5048626;28;19916;-48
2022/09/03 13:11:11;;;;;;;;;;;;;;;;;;5048381;28;20386;-47
2022/09/03 13:13:39;;;;;;;;;;;;;;;;;;5047766;28;19908;-47
2022/09/03 13:16:05;;;;;;;;;;;;;;;;;;5047732;28;19916;-43
2022/09/03 13:18:31;;;;;;;;;;;;;;;;;;5047627;28;20323;-46
2022/09/03 13:20:58;;;;;;;;;;;;;;;;;;5047808;28;20399;-45
2022/09/03 13:23:23;;;;;;;;;;;;;;;;;;5047756;28;19920;-48
2022/09/03 13:25:51;;;;;;;;;;;;;;;;;;5046947;28;19905;-45
2022/09/03 13:28:18;;;;;;;;;;;;;;;;;;5047725;28;19912;-47
2022/09/03 13:30:44;;;;;;;;;;;;;;;;;;5048274;28;19917;-49
2022/09/03 13:33:10;;;;;;;;;;;;;;;;;;5047557;28;20232;-46
2022/09/03 13:35:38;;;;;;;;;;;;;;;;;;5047126;28;20299;-45
2022/09/03 13:38:05;;;;;;;;;;;;;;;;;;5047203;28;20353;-48
2022/09/03 13:40:31;;;;;;;;;;;;;;;;;;5047204;28;19913;-46
2022/09/03 13:43:01;;;;;;;;;;;;;;;;;;5047280;28;19967;-47
2022/09/03 13:45:27;;;;;;;;;;;;;;;;;;5047369;28;19917;-45
2022/09/03 13:50:38;;;;;;;;;;;;;;;;;;5047250;28;20029;-44
2022/09/03 13:53:03;;;;;;;;;;;;;;;;;;5046995;28;20361;-45
2022/09/03 13:55:29;;;;;;;;;;;;;;;;;;5046870;28;19905;-44
2022/09/03 13:57:55;;;;;;;;;;;;;;;;;;5047281;28;20029;-46
2022/09/03 14:00:23;;;;;;;;;;;;;;;;;;5047160;28;19905;-45
2022/09/03 14:02:49;;;;;;;;;;;;;;;;;;5046887;28;20000;-48
2022/09/03 14:05:15;;;;;;;;;;;;;;;;;;5047341;28;20325;-47
2022/09/03 14:07:41;;;;;;;;;;;;;;;;;;5047265;28;19945;-46
2022/09/03 14:10:08;;;;;;;;;;;;;;;;;;5047193;28;20387;-44
2022/09/03 14:12:34;;;;;;;;;;;;;;;;;;5046714;28;19923;-47
2022/09/03 14:15:00;;;;;;;;;;;;;;;;;;5046746;28;19913;-45
2022/09/03 14:17:26;;;;;;;;;;;;;;;;;;5046436;28;19919;-47
2022/09/03 14:19:51;;;;;;;;;;;;;;;;;;5046302;28;19909;-44
2022/09/03 14:22:18;;;;;;;;;;;;;;;;;;5046530;28;19913;-43
2022/09/03 14:24:44;;;;;;;;;;;;;;;;;;5047034;28;20305;-44
2022/09/03 14:27:10;;;;;;;;;;;;;;;;;;5046559;28;19908;-47
2022/09/03 14:29:35;;;;;;;;;;;;;;;;;;5046378;28;20451;-47
2022/09/03 14:32:01;;;;;;;;;;;;;;;;;;5045255;28;19913;-47
2022/09/03 14:34:27;;;;;;;;;;;;;;;;;;5047436;28;20375;-48
2022/09/03 14:36:53;;;;;;;;;;;;;;;;;;5045846;28;19908;-45
2022/09/03 14:39:20;;;;;;;;;;;;;;;;;;5045862;28;19916;-44
2022/09/03 14:41:46;;;;;;;;;;;;;;;;;;5045545;28;19959;-44
2022/09/03 14:44:12;;;;;;;;;;;;;;;;;;5046242;28;20370;-43
2022/09/03 14:46:38;;;;;;;;;;;;;;;;;;5045389;28;19924;-44
2022/09/03 14:49:04;;;;;;;;;;;;;;;;;;5045337;28;20319;-44
2022/09/03 14:51:30;;;;;;;;;;;;;;;;;;5045275;28;19948;-45
2022/09/03 14:53:57;;;;;;;;;;;;;;;;;;5044448;28;19951;-46
2022/09/03 14:56:23;;;;;;;;;;;;;;;;;;5045210;28;20054;-44
2022/09/03 14:58:49;;;;;;;;;;;;;;;;;;5040660;28;20011;-44
2022/09/03 15:01:15;;;;;;;;;;;;;;;;;;5044472;28;19922;-44
2022/09/03 15:03:41;;;;;;;;;;;;;;;;;;5028707;28;19916;-45
2022/09/03 15:06:07;;;;;;;;;;;;;;;;;;5045755;28;19962;-47
2022/09/03 15:08:33;;;;;;;;;;;;;;;;;;5045743;28;19920;-45
2022/09/03 15:10:59;;;;;;;;;;;;;;;;;;5046715;28;19913;-45
2022/09/03 15:13:25;;;;;;;;;;;;;;;;;;5045448;28;19913;-45
2022/09/03 15:15:51;;;;;;;;;;;;;;;;;;5046398;28;19909;-46
2022/09/03 15:18:17;;;;;;;;;;;;;;;;;;5046590;28;20288;-45
2022/09/03 15:20:43;;;;;;;;;;;;;;;;;;5046594;28;19921;-44
2022/09/03 15:23:12;;;;;;;;;;;;;;;;;;5037474;28;20007;-47
2022/09/03 15:25:38;;;;;;;;;;;;;;;;;;5046197;28;19948;-48
2022/09/03 15:28:04;;;;;;;;;;;;;;;;;;5046191;28;19990;-45
2022/09/03 15:30:30;;;;;;;;;;;;;;;;;;5039998;28;19963;-46
2022/09/03 15:32:56;;;;;;;;;;;;;;;;;;5046251;28;19924;-44
2022/09/03 15:35:22;;;;;;;;;;;;;;;;;;5046663;28;19952;-45
2022/09/03 15:37:48;;;;;;;;;;;;;;;;;;5045673;28;19948;-45
2022/09/03 15:40:14;;;;;;;;;;;;;;;;;;5046472;28;19994;-45
2022/09/03 15:42:41;;;;;;;;;;;;;;;;;;5046462;28;19917;-44
2022/09/03 15:45:06;;;;;;;;;;;;;;;;;;5045170;28;19917;-44
2022/09/03 15:47:33;;;;;;;;;;;;;;;;;;5045274;28;19916;-45
2022/09/03 15:49:58;;;;;;;;;;;;;;;;;;5044383;28;19974;-45
2022/09/03 15:52:26;;;;;;;;;;;;;;;;;;5045456;28;19960;-44
2022/09/03 15:54:52;;;;;;;;;;;;;;;;;;5045466;28;20022;-44
2022/09/03 15:57:18;;;;;;;;;;;;;;;;;;5046000;28;19940;-45
2022/09/03 15:59:44;;;;;;;;;;;;;;;;;;5046748;28;20012;-44
2022/09/03 16:02:10;;;;;;;;;;;;;;;;;;5045174;28;20365;-46
2022/09/03 16:04:36;;;;;;;;;;;;;;;;;;5042182;28;19974;-46
2022/09/03 16:07:02;;;;;;;;;;;;;;;;;;5045289;28;19924;-45
2022/09/03 16:09:28;;;;;;;;;;;;;;;;;;5046167;28;20307;-45
2022/09/03 16:11:54;;;;;;;;;;;;;;;;;;5046419;28;19925;-45
2022/09/03 16:14:20;;;;;;;;;;;;;;;;;;5045938;28;19909;-44
2022/09/03 16:16:46;;;;;;;;;;;;;;;;;;5045730;28;19944;-43
2022/09/03 16:19:12;;;;;;;;;;;;;;;;;;5042843;28;19958;-44
2022/09/03 16:21:38;;;;;;;;;;;;;;;;;;5046209;28;20376;-45
2022/09/03 16:24:04;;;;;;;;;;;;;;;;;;5049496;28;19909;-46
2022/09/03 16:26:30;;;;;;;;;;;;;;;;;;5049887;28;20403;-46
2022/09/03 16:28:57;;;;;;;;;;;;;;;;;;5049912;28;19909;-46
2022/09/03 16:31:23;;;;;;;;;;;;;;;;;;5045506;28;20466;-46
2022/09/03 16:33:49;;;;;;;;;;;;;;;;;;5049794;28;19917;-45
2022/09/03 16:36:15;;;;;;;;;;;;;;;;;;5048936;28;19912;-49
2022/09/03 16:38:42;;;;;;;;;;;;;;;;;;5049592;28;19913;-46
2022/09/03 16:41:09;;;;;;;;;;;;;;;;;;5049047;28;19924;-48